createdAt,value
2023-01-19T00:00:10.889Z,97.40
2023-01-19T00:02:38.486Z,97.66
2023-01-19T00:05:05.737Z,97.10
2023-01-19T00:07:35.530Z,97.35
2023-01-19T00:10:02.022Z,97.24
2023-01-19T00:12:28.526Z,97.44
2023-01-19T00:14:55.363Z,97.38
2023-01-19T00:17:33.783Z,97.60
2023-01-19T00:20:00.477Z,97.52
2023-01-19T00:22:27.059Z,97.83
2023-01-19T00:24:53.558Z,97.89
2023-01-19T00:27:40.379Z,97.73
2023-01-19T00:30:17.817Z,97.68
2023-01-19T00:32:44.414Z,97.36
2023-01-19T00:35:10.893Z,97.61
2023-01-19T00:37:37.902Z,97.49
2023-01-19T00:40:06.225Z,97.68
2023-01-19T00:42:41.598Z,97.70
2023-01-19T00:45:09.705Z,97.66
2023-01-19T00:47:38.492Z,97.63
2023-01-19T00:50:06.295Z,97.38
2023-01-19T00:52:32.755Z,97.51
2023-01-19T00:54:59.175Z,98.29
2023-01-19T00:57:26.996Z,97.84
2023-01-19T00:59:55.393Z,97.92
2023-01-19T01:02:25.076Z,97.99
2023-01-19T01:04:56.803Z,98.26
2023-01-19T01:07:24.635Z,98.39
2023-01-19T01:10:04.659Z,98.26
2023-01-19T01:12:31.146Z,98.07
2023-01-19T01:14:57.760Z,97.67
2023-01-19T01:17:24.916Z,97.56
2023-01-19T01:19:52.402Z,97.57
2023-01-19T01:22:21.954Z,97.80
2023-01-19T01:24:48.491Z,97.89
2023-01-19T01:27:14.975Z,97.61
2023-01-19T01:29:46.382Z,97.97
2023-01-19T01:32:14.244Z,98.11
2023-01-19T01:34:40.974Z,98.02
2023-01-19T01:37:10.681Z,97.90
2023-01-19T01:39:37.364Z,97.95
2023-01-19T01:42:29.082Z,97.92
2023-01-19T01:44:58.358Z,97.98
2023-01-19T01:47:41.158Z,97.77
2023-01-19T01:51:08.039Z,98.14
2023-01-19T01:53:37.739Z,97.77
2023-01-19T01:56:10.095Z,97.88
2023-01-19T01:58:41.116Z,98.38
2023-01-19T02:01:31.902Z,98.59
2023-01-19T02:03:59.371Z,98.61
2023-01-19T02:06:26.456Z,98.02
2023-01-19T02:09:17.782Z,98.53
2023-01-19T02:12:02.963Z,98.25
2023-01-19T02:14:29.393Z,98.64
2023-01-19T02:16:56.175Z,98.53
2023-01-19T02:19:32.963Z,98.55
2023-01-19T02:22:22.519Z,98.72
2023-01-19T02:24:50.041Z,98.89
2023-01-19T02:27:19.638Z,98.65
2023-01-19T02:29:46.423Z,98.85
2023-01-19T02:32:13.172Z,98.71
2023-01-19T02:34:39.890Z,99.02
2023-01-19T02:37:12.482Z,98.81
2023-01-19T02:39:46.903Z,98.46
2023-01-19T02:44:59.942Z,99.31
2023-01-19T02:47:26.616Z,98.68
2023-01-19T02:49:57.694Z,98.93
2023-01-19T02:52:31.491Z,98.74
2023-01-19T02:55:01.015Z,98.57
2023-01-19T02:58:05.075Z,99.24
2023-01-19T03:00:57.698Z,98.80
2023-01-19T03:03:40.312Z,98.72
2023-01-19T03:06:26.943Z,98.57
2023-01-19T03:09:01.421Z,99.09
2023-01-19T03:11:31.917Z,98.79
2023-01-19T03:14:14.919Z,98.75
2023-01-19T03:16:44.131Z,98.50
2023-01-19T03:19:28.679Z,98.54
2023-01-19T03:21:59.303Z,99.08
2023-01-19T03:24:31.456Z,98.75
2023-01-19T03:27:06.737Z,99.13
2023-01-19T03:29:35.501Z,98.62
2023-01-19T03:32:09.058Z,99.08
2023-01-19T03:34:37.101Z,99.15
2023-01-19T03:37:05.097Z,98.79
2023-01-19T03:39:32.155Z,98.87
2023-01-19T03:42:05.783Z,99.33
2023-01-19T03:44:37.235Z,98.72
2023-01-19T03:47:05.988Z,98.99
2023-01-19T03:49:34.888Z,98.88
2023-01-19T03:52:04.384Z,98.70
2023-01-19T03:54:31.809Z,98.55
2023-01-19T03:56:58.839Z,98.95
2023-01-19T03:59:25.338Z,98.55
2023-01-19T04:01:52.296Z,98.63
2023-01-19T04:04:20.746Z,98.67
2023-01-19T04:06:47.530Z,98.42
2023-01-19T04:09:14.178Z,98.56
2023-01-19T04:11:40.682Z,98.81
2023-01-19T04:14:32.917Z,98.54
2023-01-19T04:16:59.637Z,98.43
2023-01-19T04:19:53.271Z,98.43
2023-01-19T04:25:00.712Z,98.11
2023-01-19T04:27:27.359Z,98.62
2023-01-19T04:30:04.266Z,97.94
2023-01-19T04:32:32.093Z,98.46
2023-01-19T04:34:59.358Z,98.36
2023-01-19T04:37:41.454Z,98.35
2023-01-19T04:40:09.263Z,98.67
2023-01-19T04:43:01.045Z,98.02
2023-01-19T04:45:27.786Z,98.16
2023-01-19T04:47:54.647Z,98.26
2023-01-19T04:50:21.549Z,98.26
2023-01-19T04:52:48.953Z,98.07
2023-01-19T04:55:15.538Z,98.90
2023-01-19T04:58:07.951Z,98.07
2023-01-19T05:00:34.562Z,98.44
2023-01-19T05:03:08.534Z,98.05
2023-01-19T05:05:36.430Z,98.34
2023-01-19T05:14:24.683Z,98.60
2023-01-19T05:16:51.173Z,98.52
2023-01-19T05:19:17.726Z,98.71
2023-01-19T05:21:44.306Z,98.20
2023-01-19T05:24:10.871Z,98.40
2023-01-19T05:26:41.790Z,98.67
2023-01-19T05:29:26.143Z,98.60
2023-01-19T05:32:54.868Z,98.47
2023-01-19T05:35:31.292Z,98.70
2023-01-19T05:38:10.502Z,98.88
2023-01-19T05:40:58.518Z,98.76
2023-01-19T05:43:40.269Z,98.59
2023-01-19T05:46:06.997Z,99.02
2023-01-19T05:48:34.062Z,98.45
2023-01-19T05:51:25.842Z,98.70
2023-01-19T05:54:09.330Z,98.48
2023-01-19T05:56:39.569Z,98.26
2023-01-19T05:59:09.272Z,98.83
2023-01-19T06:01:40.296Z,99.18
2023-01-19T06:04:16.396Z,98.84
2023-01-19T06:06:42.983Z,99.07
2023-01-19T06:09:25.220Z,98.69
2023-01-19T06:14:43.072Z,98.82
2023-01-19T06:17:09.689Z,98.82
2023-01-19T06:20:08.914Z,98.82
2023-01-19T06:22:35.507Z,98.73
2023-01-19T06:25:02.360Z,98.74
2023-01-19T06:28:07.706Z,99.21
2023-01-19T06:30:53.443Z,98.94
2023-01-19T06:33:22.994Z,99.11
2023-01-19T06:36:07.622Z,99.11
2023-01-19T06:38:38.026Z,98.87
2023-01-19T06:41:10.708Z,99.29
2023-01-19T06:43:38.943Z,99.07
2023-01-19T06:46:05.631Z,99.02
2023-01-19T06:48:34.986Z,98.67
2023-01-19T06:57:28.104Z,98.72
2023-01-19T07:00:00.828Z,99.06
2023-01-19T07:17:42.950Z,98.81
2023-01-19T07:20:14.371Z,98.72
2023-01-19T07:22:46.699Z,98.75
2023-01-19T07:25:14.031Z,98.50
2023-01-19T07:27:40.558Z,98.72
2023-01-19T07:30:08.561Z,98.80
2023-01-19T07:32:37.042Z,98.39
2023-01-19T07:35:11.862Z,98.89
2023-01-19T07:38:47.912Z,98.85
2023-01-19T07:46:01.176Z,99.23
2023-01-19T07:48:40.909Z,98.95
2023-01-19T07:55:59.933Z,99.22
2023-01-19T07:58:27.379Z,99.03
2023-01-19T08:01:17.741Z,99.27
2023-01-19T08:07:43.221Z,98.60
2023-01-19T08:11:28.773Z,98.98
2023-01-19T08:29:22.267Z,98.72
2023-01-19T08:39:41.127Z,99.06
2023-01-19T08:42:23.249Z,97.67
2023-01-19T08:44:58.126Z,93.89
2023-01-19T08:47:25.143Z,91.45
2023-01-19T08:49:58.969Z,89.48
2023-01-19T08:53:23.723Z,89.75
2023-01-19T08:59:19.903Z,92.33
2023-01-19T09:08:24.813Z,92.49
2023-01-19T09:14:01.003Z,93.16
2023-01-19T09:16:47.344Z,93.35
2023-01-19T09:19:26.539Z,94.37
2023-01-19T09:21:54.568Z,93.78
2023-01-19T09:24:46.606Z,94.35
2023-01-19T09:27:13.298Z,95.11
2023-01-19T09:29:39.790Z,95.07
2023-01-19T09:32:06.533Z,94.37
2023-01-19T09:34:33.609Z,94.19
2023-01-19T09:37:00.137Z,94.28
2023-01-19T09:39:29.192Z,94.28
2023-01-19T09:42:21.655Z,94.44
2023-01-19T09:44:50.546Z,90.44
2023-01-19T09:47:21.668Z,88.71
2023-01-19T09:50:06.663Z,88.68
2023-01-19T09:53:49.638Z,87.97
2023-01-19T09:59:29.504Z,83.49
2023-01-19T10:02:19.045Z,78.59
2023-01-19T10:05:13.393Z,78.23
2023-01-19T10:07:58.792Z,73.67
2023-01-19T10:10:47.135Z,70.58
2023-01-19T10:13:41.427Z,72.77
2023-01-19T10:16:45.401Z,69.99
2023-01-19T10:19:46.721Z,69.24
2023-01-19T10:22:36.462Z,68.90
2023-01-19T10:28:51.925Z,65.60
2023-01-19T10:31:22.327Z,61.91
2023-01-19T10:33:50.658Z,63.30
2023-01-19T10:36:26.300Z,63.15
2023-01-19T10:38:52.901Z,58.36
2023-01-19T10:41:53.304Z,60.54
2023-01-19T10:44:47.182Z,60.69
2023-01-19T10:47:24.401Z,58.96
2023-01-19T10:49:55.168Z,55.49
2023-01-19T10:52:49.680Z,55.51
2023-01-19T10:55:54.737Z,57.07
2023-01-19T10:59:28.484Z,55.89
2023-01-19T11:06:18.620Z,55.15
2023-01-19T11:09:15.355Z,52.52
2023-01-19T11:11:53.424Z,53.88
2023-01-19T11:14:49.914Z,53.27
2023-01-19T11:25:46.942Z,53.99
2023-01-19T11:28:53.969Z,54.80
2023-01-19T11:31:48.788Z,57.67
2023-01-19T11:34:44.904Z,62.37
2023-01-19T11:37:23.292Z,64.45
2023-01-19T11:40:18.341Z,62.88
2023-01-19T11:42:45.029Z,66.13
2023-01-19T11:45:27.372Z,67.25
2023-01-19T12:01:02.287Z,70.21
2023-01-19T12:07:28.421Z,69.48
2023-01-19T12:10:30.314Z,67.40
2023-01-19T12:13:18.929Z,65.17
2023-01-19T12:16:10.760Z,66.55
2023-01-19T12:18:56.615Z,65.91
2023-01-19T12:21:25.069Z,67.41
2023-01-19T12:24:10.238Z,68.67
2023-01-19T12:26:53.537Z,69.49
2023-01-19T12:29:22.501Z,69.15
2023-01-19T12:32:13.601Z,69.33
2023-01-19T12:34:41.617Z,69.52
2023-01-19T12:37:33.780Z,69.78
2023-01-19T12:40:23.572Z,69.68
2023-01-19T12:43:00.650Z,71.08
2023-01-19T12:45:48.066Z,70.69
2023-01-19T12:48:26.277Z,69.14
2023-01-19T12:50:52.902Z,68.31
2023-01-19T12:53:21.249Z,68.30
2023-01-19T12:55:59.821Z,69.95
2023-01-19T12:58:29.398Z,69.99
2023-01-19T13:01:16.764Z,69.94
2023-01-19T13:04:04.171Z,68.16
2023-01-19T13:06:49.227Z,68.98
2023-01-19T13:09:38.427Z,68.61
2023-01-19T13:12:15.011Z,68.17
2023-01-19T13:15:27.579Z,68.49
2023-01-19T13:17:57.784Z,67.72
2023-01-19T13:20:28.453Z,67.66
2023-01-19T13:23:17.780Z,66.63
2023-01-19T13:25:49.419Z,66.24
2023-01-19T13:28:18.794Z,66.62
2023-01-19T13:31:44.839Z,65.92
2023-01-19T13:35:02.180Z,66.52
2023-01-19T13:38:19.780Z,67.10
2023-01-19T13:40:47.074Z,65.76
2023-01-19T13:43:27.857Z,65.77
2023-01-19T13:45:57.415Z,66.18
2023-01-19T13:48:53.868Z,65.85
2023-01-19T13:51:25.228Z,66.42
2023-01-19T13:54:16.973Z,68.50
2023-01-19T13:56:57.969Z,69.29
2023-01-19T13:59:28.016Z,67.70
2023-01-19T14:01:54.745Z,69.45
2023-01-19T14:04:35.117Z,67.49
2023-01-19T14:07:07.505Z,69.07
2023-01-19T14:09:34.812Z,67.82
2023-01-19T14:12:16.153Z,68.50
2023-01-19T14:14:46.752Z,69.49
2023-01-19T14:17:22.615Z,68.97
2023-01-19T14:19:53.293Z,68.98
2023-01-19T14:22:19.833Z,69.72
2023-01-19T14:24:46.523Z,70.10
2023-01-19T14:27:24.662Z,69.65
2023-01-19T14:29:59.230Z,70.02
2023-01-19T14:32:27.803Z,70.05
2023-01-19T14:35:06.796Z,70.11
2023-01-19T14:37:47.497Z,71.49
2023-01-19T14:40:19.783Z,71.34
2023-01-19T14:43:00.067Z,71.33
2023-01-19T14:45:30.937Z,69.99
2023-01-19T14:48:07.004Z,71.33
2023-01-19T14:50:37.647Z,70.54
2023-01-19T14:53:05.620Z,71.69
2023-01-19T14:55:37.733Z,72.24
2023-01-19T14:58:12.738Z,70.62
2023-01-19T15:00:40.579Z,70.52
2023-01-19T15:03:07.338Z,70.76
2023-01-19T15:05:34.561Z,72.09
2023-01-19T15:08:02.844Z,72.84
2023-01-19T15:10:30.174Z,72.56
2023-01-19T15:12:57.418Z,72.58
2023-01-19T15:15:30.502Z,73.43
2023-01-19T15:17:58.912Z,72.24
2023-01-19T15:20:25.611Z,71.90
2023-01-19T15:23:01.232Z,72.22
2023-01-19T15:25:27.865Z,72.48
2023-01-19T15:27:58.792Z,72.36
2023-01-19T15:30:34.078Z,72.47
2023-01-19T15:33:02.063Z,73.69
2023-01-19T15:35:28.611Z,74.19
2023-01-19T15:37:57.835Z,74.54
2023-01-19T15:40:25.648Z,74.10
2023-01-19T15:42:52.089Z,75.32
2023-01-19T15:45:32.597Z,76.87
2023-01-19T15:48:01.250Z,76.40
2023-01-19T15:50:28.051Z,77.12
2023-01-19T15:52:54.653Z,76.65
2023-01-19T15:55:21.373Z,77.63
2023-01-19T15:57:48.731Z,78.37
2023-01-19T16:00:15.760Z,78.54
2023-01-19T16:02:52.055Z,79.31
2023-01-19T16:05:18.620Z,79.12
2023-01-19T16:07:45.183Z,79.97
2023-01-19T16:10:12.860Z,79.27
2023-01-19T16:12:39.522Z,79.93
2023-01-19T16:15:07.671Z,79.96
2023-01-19T16:17:34.511Z,80.84
2023-01-19T16:20:01.033Z,80.07
2023-01-19T16:22:27.807Z,80.93
2023-01-19T16:24:56.414Z,79.89
2023-01-19T16:27:27.535Z,80.68
2023-01-19T16:29:54.513Z,80.11
2023-01-19T16:32:20.925Z,80.77
2023-01-19T16:34:47.498Z,80.69
2023-01-19T16:37:14.034Z,81.02
2023-01-19T16:42:34.548Z,80.83
2023-01-19T16:45:03.525Z,81.27
2023-01-19T16:47:30.009Z,81.00
2023-01-19T16:49:56.540Z,81.74
2023-01-19T16:52:23.012Z,81.19
2023-01-19T16:54:49.549Z,81.33
2023-01-19T16:57:16.693Z,81.84
2023-01-19T16:59:45.066Z,81.80
2023-01-19T17:02:11.797Z,81.47
2023-01-19T17:04:38.456Z,82.20
2023-01-19T17:07:07.467Z,82.31
2023-01-19T17:09:34.052Z,82.61
2023-01-19T17:12:00.677Z,81.93
2023-01-19T17:14:27.277Z,82.56
2023-01-19T17:16:53.795Z,82.87
2023-01-19T17:19:22.072Z,82.84
2023-01-19T17:21:49.322Z,82.67
2023-01-19T17:24:16.822Z,82.59
2023-01-19T17:26:45.829Z,82.87
2023-01-19T17:29:16.605Z,82.88
2023-01-19T17:31:43.452Z,83.21
2023-01-19T17:34:10.477Z,83.70
2023-01-19T17:36:37.849Z,83.47
2023-01-19T17:39:06.941Z,83.63
2023-01-19T17:41:35.031Z,83.31
2023-01-19T17:44:02.659Z,83.60
2023-01-19T17:46:29.752Z,83.65
2023-01-19T17:49:01.902Z,83.83
2023-01-19T17:51:29.763Z,83.67
2023-01-19T17:53:57.027Z,83.95
2023-01-19T17:56:28.412Z,84.25
2023-01-19T17:58:59.077Z,84.15
2023-01-19T18:01:28.911Z,84.05
2023-01-19T18:03:55.862Z,83.78
2023-01-19T18:06:22.621Z,83.99
2023-01-19T18:08:50.101Z,84.02
2023-01-19T18:11:18.806Z,84.49
2023-01-19T18:13:48.237Z,84.44
2023-01-19T18:19:16.798Z,84.67
2023-01-19T18:21:43.390Z,84.63
2023-01-19T18:24:10.182Z,84.76
2023-01-19T18:29:19.353Z,84.46
2023-01-19T18:31:49.106Z,84.31
2023-01-19T18:34:15.836Z,84.64
2023-01-19T18:36:53.561Z,85.20
2023-01-19T18:39:20.139Z,85.25
2023-01-19T18:41:49.132Z,85.67
2023-01-19T18:44:17.320Z,85.87
2023-01-19T18:46:43.910Z,85.31
2023-01-19T18:51:51.753Z,85.97
2023-01-19T18:54:25.868Z,85.70
2023-01-19T18:56:52.386Z,85.53
2023-01-19T18:59:22.362Z,85.76
2023-01-19T19:01:48.964Z,85.92
2023-01-19T19:04:15.648Z,85.87
2023-01-19T19:06:46.131Z,85.89
2023-01-19T19:09:17.686Z,86.22
2023-01-19T19:12:12.444Z,86.24
2023-01-19T19:14:39.039Z,86.59
2023-01-19T19:17:05.685Z,86.03
2023-01-19T19:19:32.305Z,85.85
2023-01-19T19:22:02.331Z,86.33
2023-01-19T19:24:28.943Z,86.22
2023-01-19T19:26:55.808Z,86.69
2023-01-19T19:29:22.387Z,86.67
2023-01-19T19:31:48.979Z,86.71
2023-01-19T19:34:15.605Z,86.73
2023-01-19T19:36:42.191Z,86.96
2023-01-19T19:39:08.730Z,87.10
2023-01-19T19:41:40.753Z,87.01
2023-01-19T19:44:09.945Z,87.28
2023-01-19T19:46:36.562Z,87.15
2023-01-19T19:49:03.169Z,87.25
2023-01-19T19:51:29.917Z,87.37
2023-01-19T19:54:07.859Z,87.73
2023-01-19T19:56:34.408Z,87.97
2023-01-19T19:59:02.827Z,88.11
2023-01-19T20:01:33.439Z,88.15
2023-01-19T20:04:14.471Z,88.63
2023-01-19T20:06:48.527Z,88.97
2023-01-19T20:09:32.985Z,89.27
2023-01-19T20:14:55.133Z,89.95
2023-01-19T20:17:23.163Z,89.87
2023-01-19T20:19:49.825Z,90.42
2023-01-19T20:22:16.406Z,89.91
2023-01-19T20:24:42.950Z,90.45
2023-01-19T20:27:09.402Z,90.35
2023-01-19T20:29:36.018Z,90.50
2023-01-19T20:32:05.294Z,90.65
2023-01-19T20:34:33.533Z,90.53
2023-01-19T20:37:01.645Z,91.31
2023-01-19T20:39:33.419Z,91.41
2023-01-19T20:42:00.619Z,91.01
2023-01-19T20:44:27.471Z,91.36
2023-01-19T20:47:01.684Z,91.33
2023-01-19T20:49:28.558Z,91.43
2023-01-19T20:51:55.274Z,91.48
2023-01-19T20:57:07.529Z,92.05
2023-01-19T21:02:30.125Z,91.70
2023-01-19T21:04:56.791Z,91.58
2023-01-19T21:07:23.297Z,91.56
2023-01-19T21:09:49.833Z,91.73
2023-01-19T21:12:16.371Z,91.90
2023-01-19T21:14:55.300Z,92.03
2023-01-19T21:17:21.897Z,92.09
2023-01-19T21:20:38.567Z,92.14
2023-01-19T21:23:05.154Z,91.92
2023-01-19T21:25:50.927Z,92.18
2023-01-19T21:28:25.238Z,92.09
2023-01-19T21:30:55.756Z,92.13
2023-01-19T21:33:23.200Z,91.99
2023-01-19T21:35:58.512Z,92.33
2023-01-19T21:38:27.036Z,92.16
2023-01-19T21:40:57.830Z,92.05
2023-01-19T21:46:33.102Z,92.28
2023-01-19T21:49:22.759Z,92.59
2023-01-19T21:51:52.329Z,92.52
2023-01-19T21:54:22.826Z,92.64
2023-01-19T21:56:55.209Z,92.62
2023-01-19T21:59:24.644Z,92.69
2023-01-19T22:02:00.647Z,92.61
2023-01-19T22:04:28.395Z,93.24
2023-01-19T22:06:54.950Z,92.99
2023-01-19T22:12:54.998Z,93.22
2023-01-19T22:15:41.737Z,93.41
2023-01-19T22:18:35.245Z,93.10
2023-01-19T22:21:38.479Z,93.21
2023-01-19T22:24:30.356Z,93.36
2023-01-19T22:27:06.050Z,93.89
2023-01-19T22:29:32.711Z,93.87
2023-01-19T22:31:59.292Z,93.94
2023-01-19T22:34:26.073Z,93.86
2023-01-19T22:36:52.716Z,93.75
2023-01-19T22:39:22.841Z,93.70
2023-01-19T22:41:55.174Z,94.16
2023-01-19T22:44:22.133Z,94.29
2023-01-19T22:46:56.158Z,94.14
2023-01-19T22:49:29.767Z,94.13
2023-01-19T22:51:57.284Z,94.14
2023-01-19T22:54:49.358Z,94.38
2023-01-19T22:57:18.718Z,93.72
2023-01-19T22:59:54.393Z,94.37
2023-01-19T23:02:24.044Z,94.14
2023-01-19T23:05:28.686Z,94.57
2023-01-19T23:07:55.439Z,94.21
2023-01-19T23:10:47.561Z,94.36
2023-01-19T23:13:26.337Z,94.63
2023-01-19T23:16:58.541Z,94.75
2023-01-19T23:19:25.173Z,94.80
2023-01-19T23:21:56.616Z,95.00
2023-01-19T23:24:23.460Z,94.65
2023-01-19T23:26:53.101Z,94.77
2023-01-19T23:29:49.961Z,94.61
2023-01-19T23:32:28.724Z,94.80
2023-01-19T23:34:55.690Z,94.66
2023-01-19T23:37:27.410Z,94.86
2023-01-19T23:40:44.308Z,94.83
2023-01-19T23:43:36.363Z,94.95
2023-01-19T23:46:08.843Z,94.65
2023-01-19T23:48:52.392Z,94.80
2023-01-19T23:51:30.367Z,94.76
2023-01-19T23:53:58.333Z,94.50
2023-01-19T23:56:38.164Z,95.19
2023-01-19T23:59:07.164Z,95.01
